Time;durP1;ratioP1;P1;durP2;ratioP2;P2;SDS_P1;SDS_P2;PMS_P1;PMS_P2;Temp;Humidity;BMP_temperature;BMP_pressure;BME280_temperature;BME280_humidity;BME280_pressure;Samples;Min_cycle;Max_cycle;Signal;HPM_P1;HPM_P2
2023/05/18 00:02:05;;;;;;;;;8.00;7.00;;;;;-147.17;100.00;-775.19;4991860;28;51134;-62
2023/05/18 00:04:33;;;;;;;;;9.00;8.00;;;;;-147.17;100.00;-1023.88;4992528;28;51027;-63
2023/05/18 00:07:02;;;;;;;;;9.25;9.25;;;;;-147.17;100.00;-1023.88;4993257;28;51032;-63
2023/05/18 00:09:32;;;;;;;;;8.00;7.25;;;;;-147.17;100.00;-1023.88;4993101;28;51168;-62
2023/05/18 00:11:59;;;;;;;;;6.00;5.00;;;;;-147.17;100.00;-1272.53;4992324;28;50948;-62
2023/05/18 00:14:25;;;;;;;;;5.75;5.50;;;;;-147.17;100.00;-1769.84;4992731;28;52008;-63
2023/05/18 00:16:52;;;;;;;;;5.50;5.50;;;;;-147.17;100.00;-2018.47;4991804;28;51353;-62
2023/05/18 00:19:19;;;;;;;;;5.00;5.00;;;;;-147.17;100.00;-2515.66;4992040;28;51209;-62
2023/05/18 00:21:45;;;;;;;;;6.50;5.50;;;;;-147.17;100.00;-2764.22;4991863;28;51145;-63
2023/05/18 00:24:12;;;;;;;;;7.25;7.25;;;;;-147.17;100.00;-3012.78;4990560;28;53219;-63
2023/05/18 00:26:43;;;;;;;;;6.75;6.00;;;;;-147.17;100.00;-3261.34;4992300;28;51090;-63
2023/05/18 00:29:09;;;;;;;;;6.33;6.00;;;;;-147.17;100.00;-3758.38;4993268;28;51275;-63
2023/05/18 00:31:37;;;;;;;;;7.25;5.75;;;;;-147.17;100.00;-3758.38;4991299;28;50980;-63
2023/05/18 00:34:03;;;;;;;;;5.33;5.33;;;;;-147.17;100.00;-4006.88;4992252;28;51867;-63
2023/05/18 00:36:30;;;;;;;;;6.25;6.25;;;;;-147.17;100.00;-4752.25;4992356;28;51364;-63
2023/05/18 00:38:55;;;;;;;;;7.50;5.25;;;;;-147.17;100.00;-5000.69;5007133;28;51185;-62
2023/05/18 00:41:21;;;;;;;;;5.50;5.00;;;;;-147.17;100.00;-5000.69;4991260;28;51025;-63
2023/05/18 00:43:46;;;;;;;;;6.75;5.50;;;;;-147.17;100.00;-5000.69;4992347;28;52910;-63
2023/05/18 00:46:12;;;;;;;;;5.25;5.25;;;;;-147.17;100.00;-5497.50;4992992;28;50925;-63
2023/05/18 00:48:37;;;;;;;;;5.00;5.00;;;;;-147.17;100.00;-5745.88;4992500;28;51158;-63
2023/05/18 00:51:04;;;;;;;;;5.00;5.00;;;;;-147.17;100.00;-6490.94;4990470;28;51115;-63
2023/05/18 00:53:31;;;;;;;;;4.67;4.00;;;;;-147.17;100.00;-6490.94;4992061;28;51803;-62
2023/05/18 00:55:57;;;;;;;;;6.00;5.75;;;;;-147.17;100.00;-6739.25;4992001;28;50988;-63
2023/05/18 00:58:23;;;;;;;;;4.75;4.00;;;;;-147.17;100.00;-6739.25;4991682;28;51177;-62
2023/05/18 01:00:48;;;;;;;;;6.00;5.00;;;;;-147.17;100.00;-6987.56;5006478;28;51225;-62
2023/05/18 01:03:14;;;;;;;;;7.00;7.00;;;;;-147.17;100.00;-7484.09;4991836;28;51824;-63
2023/05/18 01:05:39;;;;;;;;;5.33;5.00;;;;;-147.17;100.00;-7980.59;4990722;28;51103;-61
2023/05/18 01:08:05;;;;;;;;;6.25;6.25;;;;;-147.17;100.00;-8228.81;5006935;28;51222;-63
2023/05/18 01:10:35;;;;;;;;;5.00;5.00;;;;;-147.17;100.00;-8477.03;4956977;28;51137;-62
2023/05/18 01:13:14;;;;;;;;;6.67;5.67;;;;;-147.17;100.00;-8725.22;4984259;28;51995;-62
2023/05/18 01:15:41;;;;;;;;;6.33;5.33;;;;;-147.17;100.00;-8973.38;4992237;28;51047;-63
2023/05/18 01:18:20;;;;;;;;;5.75;5.75;;;;;-147.17;100.00;-9221.53;4979359;28;51410;-64
2023/05/18 01:20:48;;;;;;;;;7.50;7.00;;;;;-147.17;100.00;-9717.81;4990427;28;51268;-63
2023/05/18 01:23:44;;;;;;;;;6.50;6.00;;;;;-147.17;100.00;-9965.91;4989891;28;51949;-63
2023/05/18 01:26:14;;;;;;;;;5.25;5.25;;;;;-147.17;100.00;-9965.91;4991869;28;51206;-63
2023/05/18 01:28:41;;;;;;;;;6.25;5.50;;;;;-147.17;100.00;-10214.00;4991666;28;51213;-63
2023/05/18 01:31:08;;;;;;;;;7.00;6.25;;;;;-147.17;100.00;-10462.09;4992782;28;51343;-63
2023/05/18 01:33:34;;;;;;;;;4.00;4.00;;;;;-147.17;100.00;-10958.19;4991177;28;51773;-63
2023/05/18 01:35:59;;;;;;;;;6.25;5.25;;;;;-147.17;100.00;-11206.22;4991467;28;51028;-64
2023/05/18 01:38:27;;;;;;;;;6.25;5.00;;;;;-147.17;100.00;-11454.25;4990347;28;51346;-62
2023/05/18 01:41:09;;;;;;;;;6.00;6.00;;;;;-147.17;100.00;-11702.25;4992936;28;51101;-62
2023/05/18 01:43:36;;;;;;;;;5.25;4.50;;;;;-147.17;100.00;-11950.22;4990742;28;53258;-63
2023/05/18 01:46:20;;;;;;;;;7.00;6.00;;;;;-147.17;100.00;-12198.19;4992397;28;51049;-63
2023/05/18 01:48:51;;;;;;;;;6.00;6.00;;;;;-147.17;100.00;-12446.13;4989291;28;51527;-62
2023/05/18 01:51:20;;;;;;;;;7.00;6.50;;;;;-147.17;100.00;-12694.06;4991261;28;51282;-62
2023/05/18 01:53:53;;;;;;;;;6.00;5.50;;;;;-147.17;100.00;-12941.97;4990791;28;51851;-63
2023/05/18 01:56:20;;;;;;;;;6.75;5.25;;;;;-147.17;100.00;-13189.88;4990340;28;51350;-63
2023/05/18 01:58:47;;;;;;;;;5.00;5.00;;;;;-147.17;100.00;-13189.88;4991547;28;51022;-63
2023/05/18 02:01:14;;;;;;;;;7.00;6.50;;;;;-147.17;100.00;-13437.75;4992508;28;50970;-62
2023/05/18 02:03:42;;;;;;;;;6.50;6.50;;;;;-147.17;100.00;-13685.63;4991659;28;51213;-62
2023/05/18 02:06:07;;;;;;;;;6.50;5.50;;;;;-147.17;100.00;-13933.50;4992104;28;51070;-62
2023/05/18 02:08:32;;;;;;;;;7.50;7.00;;;;;-147.17;100.00;-14181.31;4991365;28;51276;-64
2023/05/18 02:10:58;;;;;;;;;6.00;5.00;;;;;-147.17;100.00;-14181.31;4992613;28;50909;-62
2023/05/18 02:13:23;;;;;;;;;6.25;5.00;;;;;-147.17;100.00;-14181.31;4992184;28;51114;-63
2023/05/18 02:15:48;;;;;;;;;9.75;6.50;;;;;-147.17;100.00;-14429.16;4992335;28;51037;-63
2023/05/18 02:18:15;;;;;;;;;6.50;6.50;;;;;-147.17;100.00;-14429.16;4991119;28;51414;-63
2023/05/18 02:20:40;;;;;;;;;7.00;6.00;;;;;-147.17;100.00;-14676.94;4986978;28;51031;-63
2023/05/18 02:23:06;;;;;;;;;6.25;5.50;;;;;-147.17;100.00;-14676.94;4994482;28;52242;-63
2023/05/18 02:25:31;;;;;;;;;6.50;6.50;;;;;-147.17;100.00;-14676.94;4994911;28;51073;-62
2023/05/18 02:27:57;;;;;;;;;7.00;7.00;;;;;-147.17;100.00;-14924.75;4994713;28;51047;-62
2023/05/18 02:30:22;;;;;;;;;8.50;6.00;;;;;-147.17;100.00;-14924.75;4995071;28;51313;-62
2023/05/18 02:32:48;;;;;;;;;6.75;6.75;;;;;-147.17;100.00;-15172.50;4995096;28;51275;-63
2023/05/18 02:35:15;;;;;;;;;7.50;7.25;;;;;-147.17;100.00;-14924.75;4994739;28;51173;-62
2023/05/18 02:37:42;;;;;;;;;6.00;6.00;;;;;-147.17;100.00;-15172.50;4986930;28;51187;-63
2023/05/18 02:40:13;;;;;;;;;5.75;4.75;;;;;-147.17;100.00;-15420.25;4994245;28;51286;-69
2023/05/18 02:42:38;;;;;;;;;6.00;6.00;;;;;-147.17;100.00;-15668.00;4994488;28;52939;-63
2023/05/18 02:45:06;;;;;;;;;7.25;7.00;;;;;-147.17;100.00;-15420.25;4994533;28;51155;-62
2023/05/18 02:47:31;;;;;;;;;7.25;7.25;;;;;-147.17;100.00;-15420.25;4995520;28;51074;-64
2023/05/18 02:49:56;;;;;;;;;13.25;10.75;;;;;-147.17;100.00;-15420.25;4993794;28;51328;-63
2023/05/18 02:52:22;;;;;;;;;6.75;6.00;;;;;-147.17;100.00;-15668.00;4994403;28;51861;-63
2023/05/18 02:54:47;;;;;;;;;7.50;7.00;;;;;-147.17;100.00;-15668.00;4999961;28;50976;-63
2023/05/18 02:57:13;;;;;;;;;7.00;6.75;;;;;-147.17;100.00;-15668.00;4994985;28;51166;-62
2023/05/18 02:59:38;;;;;;;;;4.00;4.00;;;;;-147.17;100.00;-15668.00;4992781;28;51441;-62
2023/05/18 03:02:04;;;;;;;;;7.00;6.00;;;;;-147.17;100.00;-15668.00;4995402;28;51833;-62
2023/05/18 03:04:30;;;;;;;;;11.50;9.75;;;;;-147.17;100.00;-15915.72;4992618;28;51007;-62
2023/05/18 03:06:57;;;;;;;;;6.50;6.00;;;;;-147.17;100.00;-15915.72;4993225;28;51179;-62
2023/05/18 03:09:22;;;;;;;;;7.00;6.50;;;;;-147.17;100.00;-15915.72;4986332;28;51297;-62
2023/05/18 03:11:48;;;;;;;;;8.00;8.00;;;;;-147.17;100.00;-15915.72;4985749;28;51499;-62
2023/05/18 03:14:13;;;;;;;;;7.50;7.00;;;;;-147.17;100.00;-15915.72;4993427;28;51099;-62
2023/05/18 03:16:39;;;;;;;;;7.25;7.00;;;;;-147.17;100.00;-15917.19;4995593;28;51152;-62
2023/05/18 03:19:04;;;;;;;;;8.50;7.50;;;;;-147.17;100.00;-15917.19;4994590;28;51273;-62
2023/05/18 03:21:32;;;;;;;;;6.25;6.00;;;;;-147.17;100.00;-15917.19;4994526;28;51760;-62
2023/05/18 03:24:03;;;;;;;;;9.75;8.50;;;;;-147.17;100.00;-15917.19;4994536;28;50925;-63
2023/05/18 03:26:31;;;;;;;;;8.50;7.25;;;;;-147.17;100.00;-15917.19;4990872;28;51301;-61
2023/05/18 03:28:58;;;;;;;;;9.00;8.50;;;;;-147.17;100.00;-15917.19;4987393;28;51151;-62
2023/05/18 03:31:24;;;;;;;;;6.75;6.75;;;;;-147.17;100.00;-15917.19;4993660;28;52052;-62
2023/05/18 03:33:50;;;;;;;;;7.50;7.50;;;;;-147.17;100.00;-15917.19;4991648;28;51287;-63
2023/05/18 03:36:15;;;;;;;;;11.50;11.00;;;;;-147.17;100.00;-15917.19;4994822;28;51007;-63
2023/05/18 03:38:44;;;;;;;;;10.50;9.25;;;;;-147.17;100.00;-15917.19;4992213;28;51368;-61
2023/05/18 03:41:10;;;;;;;;;8.00;8.00;;;;;-147.17;100.00;-15917.19;4982906;28;51860;-62
2023/05/18 03:43:35;;;;;;;;;11.00;9.25;;;;;-147.17;100.00;-15917.19;4992371;28;51112;-62
2023/05/18 03:46:00;;;;;;;;;8.25;7.00;;;;;-147.17;100.00;-15917.19;4994664;28;50996;-63
2023/05/18 03:48:26;;;;;;;;;8.25;7.00;;;;;-147.17;100.00;-15917.19;4993912;28;50976;-62
2023/05/18 03:50:51;;;;;;;;;11.00;10.00;;;;;-147.17;100.00;-15917.19;4993025;28;52045;-62
2023/05/18 03:53:17;;;;;;;;;9.25;8.00;;;;;-147.17;100.00;-15917.19;4993625;28;51398;-62
2023/05/18 03:55:44;;;;;;;;;8.00;7.75;;;;;-147.17;100.00;-15917.19;4993008;28;51186;-62
2023/05/18 03:58:09;;;;;;;;;8.75;8.25;;;;;-147.17;100.00;-15917.19;4992350;28;51065;-64
2023/05/18 04:00:35;;;;;;;;;9.25;7.25;;;;;-147.17;100.00;-15917.19;4993091;28;51689;-62
2023/05/18 04:03:02;;;;;;;;;7.75;7.75;;;;;-147.17;100.00;-15917.19;4990946;28;51156;-62
2023/05/18 04:05:28;;;;;;;;;5.75;5.75;;;;;-147.17;100.00;-15917.19;4994181;28;51207;-63
2023/05/18 04:07:56;;;;;;;;;8.75;8.75;;;;;-147.17;100.00;-15917.19;4992275;28;51410;-63
2023/05/18 04:10:21;;;;;;;;;11.75;11.00;;;;;-147.17;100.00;-15917.19;4990953;28;52790;-63
2023/05/18 04:12:47;;;;;;;;;10.00;10.00;;;;;-147.17;100.00;-15917.19;4993300;28;51104;-63
2023/05/18 04:15:13;;;;;;;;;12.25;10.75;;;;;-147.17;100.00;-15917.19;4993421;28;51087;-63
2023/05/18 04:17:42;;;;;;;;;10.00;9.75;;;;;-147.17;100.00;-15917.19;4992516;28;51209;-62
2023/05/18 04:20:11;;;;;;;;;9.25;9.25;;;;;-147.17;100.00;-15917.19;4991661;28;54038;-62
2023/05/18 04:22:42;;;;;;;;;10.00;8.75;;;;;-147.17;100.00;-15917.19;4992031;28;51063;-62
2023/05/18 04:25:10;;;;;;;;;9.00;7.25;;;;;-147.17;100.00;-15917.19;4993803;28;50996;-62
2023/05/18 04:27:36;;;;;;;;;7.25;7.25;;;;;-147.17;100.00;-15917.19;4976350;28;51307;-62
2023/05/18 04:30:01;;;;;;;;;9.25;9.00;;;;;-147.17;100.00;-15917.19;4991746;28;51809;-65
2023/05/18 04:32:35;;;;;;;;;10.75;9.75;;;;;-147.17;100.00;-15917.19;4992966;28;51137;-64
2023/05/18 04:35:03;;;;;;;;;10.25;10.00;;;;;-147.17;100.00;-15917.19;4993722;28;51079;-63
2023/05/18 04:37:28;;;;;;;;;13.00;10.75;;;;;-147.17;100.00;-15917.19;4992153;28;51236;-61
2023/05/18 04:39:53;;;;;;;;;10.25;9.00;;;;;-147.17;100.00;-15917.19;4992315;28;57386;-62
2023/05/18 04:42:19;;;;;;;;;9.00;7.50;;;;;-147.17;100.00;-15917.19;4993152;28;50910;-62
2023/05/18 04:44:45;;;;;;;;;9.00;8.50;;;;;-147.17;100.00;-15917.19;4992224;28;51063;-62
2023/05/18 04:47:11;;;;;;;;;9.50;8.25;;;;;-147.17;100.00;-15917.19;4992828;28;51376;-61
2023/05/18 04:49:36;;;;;;;;;10.00;9.75;;;;;-147.17;100.00;-15917.19;4990002;28;51064;-61
2023/05/18 04:52:01;;;;;;;;;11.25;11.25;;;;;-147.17;100.00;-15917.19;4991598;28;50926;-62
2023/05/18 04:54:31;;;;;;;;;12.75;10.50;;;;;-147.17;100.00;-15917.19;4993175;28;50910;-62
2023/05/18 04:56:57;;;;;;;;;12.00;8.50;;;;;-147.17;100.00;-15917.19;4993359;28;51099;-61
2023/05/18 04:59:25;;;;;;;;;7.00;7.00;;;;;-147.17;100.00;-15917.19;4991732;28;51979;-62
2023/05/18 05:01:51;;;;;;;;;11.75;11.00;;;;;-147.17;100.00;-15917.19;4992680;28;50966;-62
2023/05/18 05:04:17;;;;;;;;;13.25;10.50;;;;;-147.17;100.00;-15917.19;4989096;28;51069;-62
2023/05/18 05:06:43;;;;;;;;;8.75;6.25;;;;;-147.17;100.00;-15917.19;4989525;28;51304;-62
2023/05/18 05:09:08;;;;;;;;;13.00;12.00;;;;;-147.17;100.00;-15917.19;4992398;28;51005;-62
2023/05/18 05:11:34;;;;;;;;;12.00;11.00;;;;;-147.17;100.00;-15917.19;4991472;28;51185;-62
2023/05/18 05:14:01;;;;;;;;;13.50;11.50;;;;;-147.17;100.00;-15917.19;4992990;28;51032;-62
2023/05/18 05:16:26;;;;;;;;;11.00;10.00;;;;;-147.17;100.00;-15917.19;4992874;28;51178;-62
2023/05/18 05:18:52;;;;;;;;;10.75;10.00;;;;;-147.17;100.00;-15917.19;4990268;28;53222;-63
2023/05/18 05:21:17;;;;;;;;;13.00;11.00;;;;;-147.17;100.00;-15917.19;4985625;28;55074;-61
2023/05/18 05:23:44;;;;;;;;;7.25;6.00;;;;;-147.17;100.00;-15917.19;4992942;28;50984;-62
2023/05/18 05:26:09;;;;;;;;;11.75;10.75;;;;;-147.17;100.00;-15917.19;4992955;28;51201;-62
2023/05/18 05:28:34;;;;;;;;;13.00;10.75;;;;;-147.17;100.00;-15917.19;4990687;28;51747;-62
2023/05/18 05:31:00;;;;;;;;;12.50;11.25;;;;;-147.17;100.00;-15917.19;4992542;28;50851;-61
2023/05/18 05:33:25;;;;;;;;;15.00;12.00;;;;;-147.17;100.00;-15917.19;4992866;28;50988;-61
2023/05/18 05:35:50;;;;;;;;;11.50;11.50;;;;;-147.17;100.00;-15917.19;4992131;28;51363;-62
2023/05/18 05:38:16;;;;;;;;;11.75;10.50;;;;;-147.17;100.00;-15917.19;4990075;28;51166;-62
2023/05/18 05:40:41;;;;;;;;;10.50;10.50;;;;;-147.17;100.00;-15917.19;4992321;28;51150;-61
2023/05/18 05:43:06;;;;;;;;;15.00;13.00;;;;;-147.17;100.00;-15917.19;4992615;28;50989;-62
2023/05/18 05:45:32;;;;;;;;;17.50;13.50;;;;;-147.17;100.00;-15668.00;4992555;28;51325;-63
2023/05/18 05:47:57;;;;;;;;;13.00;12.75;;;;;-147.17;100.00;-15668.00;4990988;28;51908;-62
2023/05/18 05:50:23;;;;;;;;;13.50;11.75;;;;;-147.17;100.00;-15668.00;4992312;28;51144;-61
2023/05/18 05:52:48;;;;;;;;;11.00;10.25;;;;;-147.17;100.00;-15172.50;4991746;28;51057;-62
2023/05/18 05:55:14;;;;;;;;;12.00;10.75;;;;;-147.17;100.00;-14429.16;4992460;28;51261;-62
2023/05/18 05:57:41;;;;;;;;;13.50;12.50;;;;;-147.17;100.00;-13189.88;4994805;28;51589;-62
2023/05/18 06:00:09;;;;;;;;;10.25;10.25;;;;;-147.17;100.00;-12198.19;4995188;28;51090;-62
2023/05/18 06:02:34;;;;;;;;;11.25;9.75;;;;;-147.17;100.00;-11950.22;4991097;28;50826;-62
2023/05/18 06:05:00;;;;;;;;;9.00;7.75;;;;;-147.17;100.00;-11206.22;4995599;28;51046;-62
2023/05/18 06:07:25;;;;;;;;;10.00;9.00;;;;;-147.17;100.00;-10214.00;4990867;28;52811;-62
2023/05/18 06:09:51;;;;;;;;;12.25;12.25;;;;;-147.17;100.00;-8725.22;4983920;28;50887;-62
2023/05/18 06:12:16;;;;;;;;;11.50;10.25;;;;;-147.17;100.00;-5745.88;4995609;28;51052;-62
2023/05/18 06:14:41;;;;;;;;;13.33;11.00;;;;;-147.17;100.00;-3261.34;4995811;28;50881;-63
2023/05/18 06:17:07;;;;;;;;;10.00;10.00;;;;;-147.17;100.00;-2764.22;4994124;28;53362;-62
2023/05/18 06:19:32;;;;;;;;;12.50;10.50;;;;;-147.17;100.00;-2267.06;4991294;28;51286;-62
2023/05/18 06:21:57;;;;;;;;;11.00;11.00;;;;;-147.17;100.00;1961.44;4995122;28;51214;-62
2023/05/18 06:24:23;;;;;;;;;10.00;8.67;;;;;-147.17;100.00;3454.97;4994818;28;51130;-62
2023/05/18 06:26:48;;;;;;;;;12.75;12.75;;;;;-147.17;100.00;5945.44;4993771;28;51382;-63
2023/05/18 06:29:13;;;;;;;;;13.00;13.00;;;;;-147.17;100.00;7440.50;4993773;28;54794;-63
2023/05/18 06:31:39;;;;;;;;;13.00;11.25;;;;;-147.17;100.00;10182.97;4994715;28;51156;-62
2023/05/18 06:34:04;;;;;;;;;13.75;12.50;;;;;-147.17;100.00;11679.66;4976646;28;51318;-63
2023/05/18 06:36:30;;;;;;;;;15.75;12.50;;;;;-147.17;100.00;10931.25;4994700;28;53049;-63
2023/05/18 06:38:56;;;;;;;;;11.00;10.25;;;;;-147.17;100.00;12927.34;4994191;28;51057;-63
2023/05/18 06:41:22;;;;;;;;;12.00;12.00;;;;;-147.17;100.00;17172.50;4994709;28;51026;-63
2023/05/18 06:43:47;;;;;;;;;11.67;11.00;;;;;-147.17;100.00;19421.84;4994838;28;51213;-63
2023/05/18 06:46:19;;;;;;;;;14.00;13.00;;;;;-147.17;100.00;21172.19;4993197;28;62938;-61
2023/05/18 06:48:45;;;;;;;;;9.00;9.00;;;;;-147.17;100.00;21172.19;4994876;28;51180;-63
2023/05/18 06:51:11;;;;;;;;;12.67;10.67;;;;;-147.17;100.00;26944.59;4991201;28;52125;-63
2023/05/18 06:53:37;;;;;;;;;12.67;11.67;;;;;-147.17;100.00;27379.03;4993637;28;51344;-63
2023/05/18 06:56:03;;;;;;;;;15.33;14.00;;;;;-147.17;100.00;30521.44;4993410;28;58768;-63
2023/05/18 06:58:29;;;;;;;;;12.67;12.67;;;;;-147.17;100.00;33540.88;4993041;28;51200;-63
2023/05/18 07:00:54;;;;;;;;;9.33;9.33;;;;;-147.17;100.00;36205.66;4978168;28;51594;-64
2023/05/18 07:03:19;;;;;;;;;9.00;9.00;;;;;-147.17;100.00;36847.13;4994447;28;51464;-64
2023/05/18 07:05:45;;;;;;;;;14.33;13.33;;;;;-147.17;100.00;39300.16;4997513;28;52717;-63
2023/05/18 07:08:10;;;;;;;;;11.33;9.67;;;;;-147.17;100.00;40069.75;4992254;28;51060;-63
2023/05/18 07:10:36;;;;;;;;;10.00;10.00;;;;;-147.17;100.00;40165.97;4994492;28;51250;-63
2023/05/18 07:13:01;;;;;;;;;11.33;9.33;;;;;-147.17;100.00;40279.84;4994893;28;50842;-63
2023/05/18 07:15:26;;;;;;;;;11.00;10.67;;;;;-147.17;100.00;41181.22;4990622;28;54633;-63
2023/05/18 07:17:52;;;;;;;;;12.67;11.33;;;;;-147.17;100.00;41226.38;4986464;28;50956;-63
2023/05/18 07:20:17;;;;;;;;;14.33;11.00;;;;;-147.17;100.00;41687.94;4993943;28;51196;-63
2023/05/18 07:22:43;;;;;;;;;10.00;9.00;;;;;-147.17;100.00;41522.94;4993094;28;51189;-63
2023/05/18 07:25:08;;;;;;;;;12.00;11.00;;;;;-147.17;100.00;42292.97;4994077;28;51842;-63
2023/05/18 07:27:33;;;;;;;;;11.00;11.00;;;;;-147.17;100.00;42055.28;4992333;28;50937;-64
2023/05/18 07:29:59;;;;;;;;;11.00;10.00;;;;;-147.17;100.00;42320.47;4994012;28;51051;-62
2023/05/18 07:32:24;;;;;;;;;11.33;10.67;;;;;-147.17;100.00;42186.91;4992291;28;51151;-63
2023/05/18 07:34:50;;;;;;;;;14.00;10.67;;;;;-147.17;100.00;42520.88;4993656;28;51782;-63
2023/05/18 07:37:15;;;;;;;;;11.67;11.00;;;;;-147.17;100.00;42568.03;4992534;28;51043;-63
2023/05/18 07:39:40;;;;;;;;;11.00;10.33;;;;;-147.17;100.00;42090.63;4993979;28;51064;-63
2023/05/18 07:42:07;;;;;;;;;11.00;10.33;;;;;-147.17;100.00;42071.00;4994250;28;51149;-63
2023/05/18 07:44:32;;;;;;;;;9.33;9.00;;;;;-147.17;100.00;42528.72;4993960;28;52008;-64
2023/05/18 07:46:58;;;;;;;;;8.33;7.00;;;;;-147.17;100.00;42949.19;4993918;28;51003;-63
2023/05/18 07:49:24;;;;;;;;;10.00;10.00;;;;;-147.17;100.00;42764.50;4992493;28;51051;-64
2023/05/18 07:51:50;;;;;;;;;11.33;10.33;;;;;-147.17;100.00;42513.00;4993867;28;50932;-64
2023/05/18 07:54:15;;;;;;;;;11.67;10.67;;;;;-147.17;100.00;41915.81;4993389;28;51824;-63
2023/05/18 07:56:40;;;;;;;;;15.33;13.67;;;;;-147.17;100.00;42008.13;4993942;28;50995;-63
2023/05/18 07:59:08;;;;;;;;;12.33;11.67;;;;;-147.17;100.00;42120.09;4992146;28;51283;-63
2023/05/18 08:01:34;;;;;;;;;12.00;11.00;;;;;-147.17;100.00;42057.25;4994138;28;51072;-62
2023/05/18 08:03:59;;;;;;;;;13.00;10.67;;;;;-147.17;100.00;41591.69;4992332;28;53043;-63
2023/05/18 08:06:25;;;;;;;;;11.67;11.67;;;;;-147.17;100.00;41479.75;4991739;28;51170;-64
2023/05/18 08:08:50;;;;;;;;;9.00;9.00;;;;;-147.17;100.00;41185.13;4991939;28;50996;-64
2023/05/18 08:11:16;;;;;;;;;10.33;9.00;;;;;-147.17;100.00;41008.38;4993767;28;51187;-63
2023/05/18 08:13:41;;;;;;;;;11.00;11.00;;;;;-147.17;100.00;42108.31;4993457;28;51932;-63
2023/05/18 08:16:07;;;;;;;;;11.33;11.00;;;;;-147.17;100.00;43086.72;4988845;28;51047;-63
2023/05/18 08:18:32;;;;;;;;;10.33;10.00;;;;;-147.17;100.00;43916.03;4988131;28;51085;-64
2023/05/18 08:20:57;;;;;;;;;12.33;11.67;;;;;-147.17;100.00;44430.97;4983439;28;51286;-64
2023/05/18 08:23:23;;;;;;;;;11.67;11.00;;;;;-147.17;100.00;44910.63;4992412;28;51798;-63
2023/05/18 08:25:49;;;;;;;;;12.00;11.00;;;;;-147.17;100.00;45056.09;4993273;28;50981;-63
2023/05/18 08:28:15;;;;;;;;;13.33;12.33;;;;;-147.17;100.00;45266.44;4993359;28;51215;-63
2023/05/18 08:30:41;;;;;;;;;13.00;12.33;;;;;-147.17;100.00;45498.44;4993592;28;50986;-63
2023/05/18 08:33:06;;;;;;;;;11.33;10.67;;;;;-147.17;100.00;45685.22;4992898;28;51853;-64
2023/05/18 08:35:32;;;;;;;;;10.33;9.00;;;;;-147.17;100.00;45956.59;4993378;28;50963;-65
2023/05/18 08:37:57;;;;;;;;;12.67;10.00;;;;;-147.17;100.00;46035.25;4990851;28;51152;-64
2023/05/18 08:40:32;;;;;;;;;9.00;9.00;;;;;-147.17;100.00;46049.00;4993381;28;51227;-64
2023/05/18 08:43:07;;;;;;;;;9.33;9.33;;;;;-147.17;100.00;46190.59;4992673;28;51863;-63
2023/05/18 08:45:41;;;;;;;;;10.00;8.00;;;;;-147.17;100.00;45858.25;4993071;28;51135;-63
2023/05/18 08:48:08;;;;;;;;;11.67;11.00;;;;;-147.17;100.00;45177.97;4992782;28;50880;-64
2023/05/18 08:50:35;;;;;;;;;10.33;9.67;;;;;-147.17;100.00;45266.44;4992912;28;50979;-64
2023/05/18 08:53:04;;;;;;;;;10.33;10.00;;;;;-147.17;100.00;45417.84;4991433;28;51920;-64
2023/05/18 08:55:35;;;;;;;;;11.33;10.33;;;;;-147.17;100.00;45494.50;4992819;28;50883;-63
2023/05/18 08:58:02;;;;;;;;;10.00;9.00;;;;;-147.17;100.00;45358.84;4992525;28;51189;-63
2023/05/18 09:00:28;;;;;;;;;9.00;8.00;;;;;-147.17;100.00;45034.47;4993027;28;51144;-63
2023/05/18 09:02:54;;;;;;;;;10.00;9.33;;;;;-147.17;100.00;44753.34;4992266;28;50885;-63
2023/05/18 09:05:21;;;;;;;;;5.33;5.00;;;;;-147.17;100.00;44482.09;4992946;28;51122;-63
2023/05/18 09:07:50;;;;;;;;;4.00;3.00;;;;;-147.17;100.00;44189.22;4992510;28;50969;-63
2023/05/18 09:10:16;;;;;;;;;8.33;8.00;;;;;-147.17;100.00;43731.28;4978998;28;51521;-63
2023/05/18 09:12:45;;;;;;;;;13.67;11.67;;;;;-147.17;100.00;43444.38;4992045;28;51895;-64
2023/05/18 09:15:12;;;;;;;;;11.67;10.33;;;;;-147.17;100.00;43326.47;4992587;28;50995;-63
2023/05/18 09:17:37;;;;;;;;;11.33;10.67;;;;;-147.17;100.00;43212.50;4991989;28;50896;-63
2023/05/18 09:20:06;;;;;;;;;12.33;11.67;;;;;-147.17;100.00;42931.50;4992839;28;51000;-63
2023/05/18 09:22:39;;;;;;;;;10.00;10.00;;;;;-147.17;100.00;43387.38;4991710;28;51707;-63
2023/05/18 09:25:04;;;;;;;;;12.00;11.00;;;;;-147.17;100.00;43833.47;4991821;28;51321;-63
2023/05/18 09:27:30;;;;;;;;;13.00;13.00;;;;;-147.17;100.00;43908.16;4991247;28;50953;-63
2023/05/18 09:29:57;;;;;;;;;10.67;9.00;;;;;-147.17;100.00;43959.25;4992625;28;51047;-64
2023/05/18 09:32:24;;;;;;;;;14.00;13.00;;;;;-147.17;100.00;43904.22;4995115;28;51974;-64
2023/05/18 09:34:50;;;;;;;;;12.33;10.33;;;;;-147.17;100.00;43599.63;4996047;28;51054;-63
2023/05/18 09:37:20;;;;;;;;;12.33;12.00;;;;;-147.17;100.00;43503.31;4995608;28;50933;-64
2023/05/18 09:39:57;;;;;;;;;7.33;7.33;;;;;-147.17;100.00;43145.69;4994362;28;51311;-64
2023/05/18 09:42:47;;;;;;;;;11.00;11.00;;;;;-147.17;100.00;43680.19;4995459;28;51002;-63
2023/05/18 09:45:22;;;;;;;;;14.00;13.00;;;;;-147.17;100.00;44116.50;4995678;28;51375;-64
2023/05/18 09:47:51;;;;;;;;;12.33;11.00;;;;;-147.17;100.00;44336.63;4995934;28;50946;-64
2023/05/18 09:50:21;;;;;;;;;10.67;10.00;;;;;-147.17;100.00;44580.38;4995811;28;50897;-64
2023/05/18 09:52:48;;;;;;;;;11.33;10.67;;;;;-147.17;100.00;44938.13;4994175;28;52133;-64
2023/05/18 09:55:18;;;;;;;;;12.33;12.33;;;;;-147.17;100.00;45421.75;4995230;28;51202;-64
2023/05/18 09:57:48;;;;;;;;;10.33;10.33;;;;;-147.17;100.00;45537.78;4995180;28;50890;-64
2023/05/18 10:00:15;;;;;;;;;12.00;12.00;;;;;-147.17;100.00;45468.94;4993821;28;51386;-64
2023/05/18 10:02:47;;;;;;;;;12.00;12.00;;;;;-147.17;100.00;45516.13;4995044;28;51040;-65
2023/05/18 10:05:30;;;;;;;;;13.00;11.33;;;;;-147.17;100.00;45470.91;4994063;28;50984;-64
2023/05/18 10:07:56;;;;;;;;;16.00;14.00;;;;;-147.17;100.00;45317.56;4994769;28;50944;-64
2023/05/18 10:10:25;;;;;;;;;15.00;13.67;;;;;-147.17;100.00;45443.41;4995667;28;50881;-65
2023/05/18 10:12:51;;;;;;;;;12.00;10.67;;;;;-147.17;100.00;45453.22;4994931;28;50970;-64
2023/05/18 10:15:20;;;;;;;;;14.00;13.67;;;;;-147.17;100.00;45413.91;4995229;28;51061;-64
2023/05/18 10:17:47;;;;;;;;;14.00;13.00;;;;;-147.17;100.00;45185.84;4994769;28;50894;-63
2023/05/18 10:20:22;;;;;;;;;13.00;12.00;;;;;-147.17;100.00;45075.75;4992889;28;51125;-64
2023/05/18 10:22:49;;;;;;;;;8.67;8.00;;;;;-147.17;100.00;45056.09;4977741;28;51233;-64
2023/05/18 10:25:18;;;;;;;;;12.33;12.00;;;;;-147.17;100.00;45075.75;4994083;28;51167;-64
2023/05/18 10:27:45;;;;;;;;;11.67;11.67;;;;;-147.17;100.00;45236.97;4994337;28;50950;-64
2023/05/18 10:30:13;;;;;;;;;13.00;13.00;;;;;-147.17;100.00;45531.88;4994651;28;51253;-64
2023/05/18 10:32:39;;;;;;;;;13.00;12.00;;;;;-147.17;100.00;45641.97;4994213;28;51902;-64
2023/05/18 10:35:06;;;;;;;;;12.33;11.33;;;;;-147.17;100.00;46001.81;4994611;28;51043;-65
2023/05/18 10:37:34;;;;;;;;;11.67;11.67;;;;;-147.17;100.00;46035.25;4992804;28;51167;-64
2023/05/18 10:40:02;;;;;;;;;9.67;9.00;;;;;-147.17;100.00;46135.53;4994707;28;51273;-64
2023/05/18 10:42:30;;;;;;;;;11.67;10.33;;;;;-147.17;100.00;46389.22;4994381;28;52371;-64
2023/05/18 10:44:56;;;;;;;;;12.33;10.67;;;;;-147.17;100.00;46530.81;4994652;28;51209;-64
2023/05/18 10:47:25;;;;;;;;;13.33;13.00;;;;;-147.17;100.00;46798.28;4994334;28;51229;-64
2023/05/18 10:49:51;;;;;;;;;12.33;12.00;;;;;-147.17;100.00;47053.97;4994579;28;51357;-65
2023/05/18 10:52:17;;;;;;;;;15.33;15.00;;;;;-147.17;100.00;47301.81;4992399;28;52979;-63
2023/05/18 10:54:43;;;;;;;;;12.00;12.00;;;;;-147.17;100.00;47488.69;4994793;28;50953;-66
2023/05/18 10:57:14;;;;;;;;;11.33;9.00;;;;;-147.17;100.00;47573.25;4994099;28;51127;-64
2023/05/18 10:59:42;;;;;;;;;11.00;10.00;;;;;-147.17;100.00;47573.25;4994655;28;51385;-63